Time;durP1;ratioP1;P1;durP2;ratioP2;P2;SDS_P1;SDS_P2;PMS_P1;PMS_P2;Temp;Humidity;BMP_temperature;BMP_pressure;BME280_temperature;BME280_humidity;BME280_pressure;Samples;Min_cycle;Max_cycle;Signal;HPM_P1;HPM_P2
2022/06/09 00:01:02;;;;;;;2.67;1.88;;;;;;;22.05;68.95;98995.34;4991710;28;20037;-84
2022/06/09 00:03:39;;;;;;;2.50;1.33;;;;;;;22.09;69.06;98999.47;4990060;28;20149;-84
2022/06/09 00:06:09;;;;;;;3.35;1.75;;;;;;;22.20;68.82;99018.38;4989990;28;20037;-85
2022/06/09 00:08:37;;;;;;;2.60;1.70;;;;;;;21.96;68.59;98968.16;4990285;28;20034;-85
2022/06/09 00:11:06;;;;;;;2.30;1.25;;;;;;;22.02;69.13;99000.94;4971739;28;20428;-85
2022/06/09 00:13:31;;;;;;;3.10;2.35;;;;;;;21.92;69.79;98993.53;4990495;28;20125;-87
2022/06/09 00:15:58;;;;;;;1.83;1.52;;;;;;;21.74;69.66;98966.22;4989664;28;20145;-85
2022/06/09 00:18:24;;;;;;;2.70;1.20;;;;;;;21.75;70.07;98973.31;4972683;28;20035;-85
2022/06/09 00:20:50;;;;;;;2.38;1.45;;;;;;;21.66;70.40;98971.28;4990604;28;20093;-85
2022/06/09 00:23:17;;;;;;;1.83;1.48;;;;;;;21.73;70.55;98991.31;4989174;28;20034;-85
2022/06/09 00:25:44;;;;;;;2.83;1.77;;;;;;;21.88;70.25;98994.72;4990226;28;20038;-85
2022/06/09 00:28:09;;;;;;;2.65;1.85;;;;;;;21.43;71.39;98979.13;4990385;28;20096;-85
2022/06/09 00:30:35;;;;;;;2.83;1.50;;;;;;;21.35;71.69;98997.59;4990208;28;20042;-85
2022/06/09 00:33:01;;;;;;;3.72;1.80;;;;;;;21.36;72.06;99004.66;4989621;28;20039;-85
2022/06/09 00:35:26;;;;;;;3.20;1.75;;;;;;;21.00;72.67;98975.94;4989166;28;20034;-85
2022/06/09 00:37:52;;;;;;;2.00;1.00;;;;;;;20.91;73.18;98989.03;4990347;28;20100;-85
2022/06/09 00:40:18;;;;;;;2.28;0.98;;;;;;;20.60;73.75;98954.53;4990134;28;20030;-85
2022/06/09 00:42:44;;;;;;;1.70;1.17;;;;;;;20.78;72.71;98939.91;4990019;28;20117;-85
2022/06/09 00:45:24;;;;;;;1.83;1.20;;;;;;;21.10;72.53;99007.34;4989605;28;20113;-85
2022/06/09 00:47:53;;;;;;;1.65;0.93;;;;;;;21.14;72.47;99001.78;4970456;28;20042;-84
2022/06/09 00:50:23;;;;;;;2.65;1.38;;;;;;;20.87;72.80;98970.56;4983795;28;20041;-85
2022/06/09 00:52:54;;;;;;;2.03;1.25;;;;;;;20.91;72.54;98959.53;4990083;28;20037;-85
2022/06/09 00:55:24;;;;;;;1.92;1.17;;;;;;;20.99;73.04;99003.69;4988825;28;20062;-85
2022/06/09 00:57:57;;;;;;;1.80;1.58;;;;;;;20.43;74.80;98977.09;4982328;28;20046;-84
2022/06/09 01:00:30;;;;;;;2.25;2.05;;;;;;;20.61;73.79;98957.09;4989844;28;20120;-85
2022/06/09 01:02:58;;;;;;;2.58;2.30;;;;;;;20.66;73.34;98952.31;4989728;28;20117;-84
2022/06/09 01:05:26;;;;;;;2.63;1.70;;;;;;;20.53;73.84;98940.69;4989271;28;20054;-84
2022/06/09 01:07:55;;;;;;;2.08;1.13;;;;;;;20.89;72.81;98974.00;4989383;28;20169;-85
2022/06/09 01:10:21;;;;;;;1.65;1.27;;;;;;;21.02;72.33;98974.88;4970351;28;20030;-85
2022/06/09 01:12:47;;;;;;;1.73;1.13;;;;;;;20.85;72.87;98970.69;4989483;28;20519;-85
2022/06/09 01:15:19;;;;;;;3.00;1.73;;;;;;;21.03;72.09;98965.00;4971310;28;20550;-85
2022/06/09 01:17:55;;;;;;;1.95;1.10;;;;;;;21.01;72.38;98980.34;4990016;28;20193;-85
2022/06/09 01:20:42;;;;;;;3.92;3.00;;;;;;;21.24;71.88;98984.06;4990124;28;20034;-85
2022/06/09 01:23:26;;;;;;;2.65;2.33;;;;;;;21.18;72.16;98982.69;4989617;28;20038;-85
2022/06/09 01:26:10;;;;;;;3.97;1.88;;;;;;;21.14;72.33;98981.19;4988893;28;20069;-85
2022/06/09 01:28:54;;;;;;;2.90;1.50;;;;;;;21.06;72.82;98983.53;4989393;28;20519;-85
2022/06/09 01:31:33;;;;;;;2.80;1.70;;;;;;;21.11;72.11;98955.44;4988889;28;20277;-85
2022/06/09 01:34:10;;;;;;;1.48;1.20;;;;;;;21.14;71.99;98965.09;4988493;28;20042;-86
2022/06/09 01:36:51;;;;;;;4.95;2.70;;;;;;;21.38;71.54;98983.97;4989020;28;20276;-85
2022/06/09 01:39:17;;;;;;;2.83;1.67;;;;;;;21.20;71.78;98961.97;4989010;28;20420;-85
2022/06/09 01:41:48;;;;;;;2.47;1.63;;;;;;;21.21;72.00;98952.09;4987465;28;20527;-85
2022/06/09 01:44:15;;;;;;;3.10;2.17;;;;;;;21.42;71.75;98979.22;4988770;28;20576;-84
2022/06/09 01:46:44;;;;;;;2.55;1.27;;;;;;;21.39;71.73;98968.72;4988261;28;20034;-84
2022/06/09 01:49:19;;;;;;;2.33;1.38;;;;;;;21.35;71.79;98975.25;4971542;28;20124;-85
2022/06/09 01:51:47;;;;;;;2.38;1.20;;;;;;;21.29;71.49;98968.53;4988459;28;20062;-84
2022/06/09 01:54:21;;;;;;;2.22;2.03;;;;;;;21.24;71.58;98979.56;4988913;28;20034;-85
2022/06/09 01:56:56;;;;;;;3.20;1.73;;;;;;;21.24;71.82;98976.00;4987809;28;20038;-85
2022/06/09 01:59:34;;;;;;;2.58;1.80;;;;;;;21.23;71.81;98980.53;4971024;28;20120;-85
2022/06/09 02:02:06;;;;;;;2.20;1.65;;;;;;;21.21;72.37;98982.47;4987880;28;20039;-85
2022/06/09 02:04:39;;;;;;;3.33;2.60;;;;;;;21.31;72.24;98980.00;4988150;28;20515;-85
2022/06/09 02:07:08;;;;;;;3.50;2.05;;;;;;;21.07;72.54;98951.25;4987275;28;20074;-85
2022/06/09 02:09:34;;;;;;;4.07;2.88;;;;;;;21.25;72.63;98975.06;4988056;28;20034;-85
2022/06/09 02:12:10;;;;;;;3.70;2.03;;;;;;;21.13;73.03;98976.78;4985862;28;20149;-85
2022/06/09 02:14:38;;;;;;;6.22;2.45;;;;;;;21.27;72.79;98983.84;4988103;28;20069;-85
2022/06/09 02:17:05;;;;;;;3.65;2.60;;;;;;;20.98;72.40;98945.69;4987589;28;20026;-85
2022/06/09 02:19:32;;;;;;;3.13;2.05;;;;;;;21.07;72.86;98972.72;4987668;28;20034;-85
2022/06/09 02:21:57;;;;;;;3.80;2.22;;;;;;;20.95;73.04;98970.88;4987904;28;20054;-85
2022/06/09 02:24:23;;;;;;;3.17;1.67;;;;;;;20.89;73.13;98965.94;4987656;28;20116;-85
2022/06/09 02:26:49;;;;;;;4.55;1.90;;;;;;;20.83;73.43;98961.88;4987629;28;21015;-85
2022/06/09 02:29:15;;;;;;;4.20;2.33;;;;;;;20.93;73.68;98994.28;4969547;28;20050;-85
2022/06/09 02:31:42;;;;;;;3.40;2.15;;;;;;;20.74;73.36;98951.78;4987793;28;20085;-85
2022/06/09 02:34:09;;;;;;;3.50;1.92;;;;;;;20.91;73.28;98975.63;4987343;28;20097;-85
2022/06/09 02:36:34;;;;;;;2.17;1.48;;;;;;;20.84;73.32;98978.81;4987630;28;20859;-85
2022/06/09 02:39:00;;;;;;;3.72;2.50;;;;;;;20.96;72.98;98987.81;4987371;28;20034;-85
2022/06/09 02:41:25;;;;;;;2.97;1.98;;;;;;;20.81;72.66;98947.72;4987840;28;20173;-84
2022/06/09 02:43:51;;;;;;;2.88;1.92;;;;;;;20.72;72.53;98930.44;4987710;28;20065;-85
2022/06/09 02:46:17;;;;;;;3.20;1.80;;;;;;;20.93;72.47;98972.84;4988232;28;20066;-85
2022/06/09 02:48:42;;;;;;;3.28;1.83;;;;;;;20.82;72.33;98956.59;4987354;28;20127;-85
2022/06/09 02:51:16;;;;;;;3.05;2.15;;;;;;;21.07;72.00;98980.75;4987965;28;20180;-86
2022/06/09 02:53:42;;;;;;;2.42;1.33;;;;;;;21.10;72.02;98987.72;4988100;28;20069;-86
2022/06/09 02:56:07;;;;;;;3.05;1.95;;;;;;;20.95;72.17;98970.03;4983313;28;20481;-87
2022/06/09 02:58:32;;;;;;;1.80;1.00;;;;;;;21.05;71.60;98963.06;4968131;28;20419;-87
2022/06/09 03:00:58;;;;;;;3.05;2.05;;;;;;;21.09;71.28;98970.78;4978907;28;20084;-87
2022/06/09 03:03:24;;;;;;;2.58;1.67;;;;;;;20.89;72.90;98993.59;4968200;28;20145;-85
2022/06/09 03:05:50;;;;;;;2.80;1.58;;;;;;;20.85;72.62;98969.81;4987012;28;20049;-84
2022/06/09 03:08:15;;;;;;;2.10;1.30;;;;;;;20.89;72.76;98977.53;4987954;28;20559;-82
2022/06/09 03:10:41;;;;;;;3.10;1.77;;;;;;;20.87;72.96;98986.66;4987491;28;20034;-82
2022/06/09 03:13:06;;;;;;;2.53;1.27;;;;;;;21.02;73.00;98990.97;4987343;28;20038;-82
2022/06/09 03:15:33;;;;;;;2.88;1.50;;;;;;;20.98;72.82;98984.09;4987256;28;20423;-82
2022/06/09 03:17:58;;;;;;;2.15;1.52;;;;;;;20.80;73.68;98969.28;4969710;28;20090;-82
2022/06/09 03:20:28;;;;;;;2.03;1.48;;;;;;;20.98;73.52;98993.97;4974437;28;20041;-81
2022/06/09 03:22:54;;;;;;;1.67;1.15;;;;;;;21.01;73.31;98989.22;4995953;28;20034;-81
2022/06/09 03:25:20;;;;;;;2.15;1.67;;;;;;;20.91;73.41;98983.66;4992189;28;20038;-82
2022/06/09 03:27:45;;;;;;;2.80;1.70;;;;;;;20.83;74.07;98982.47;4991107;28;20117;-82
2022/06/09 03:30:12;;;;;;;2.85;1.67;;;;;;;20.91;74.38;98994.38;4991558;28;20216;-80
2022/06/09 03:32:38;;;;;;;2.58;1.75;;;;;;;20.87;74.84;98997.38;4990279;28;20121;-81
2022/06/09 03:35:05;;;;;;;2.47;1.40;;;;;;;20.84;75.05;98990.41;4991265;28;20425;-81
2022/06/09 03:37:31;;;;;;;2.67;1.60;;;;;;;20.74;75.53;98970.53;4989359;28;20037;-81
2022/06/09 03:39:56;;;;;;;2.35;1.65;;;;;;;20.92;75.20;98989.88;4991418;28;20038;-80
2022/06/09 03:42:22;;;;;;;1.95;1.35;;;;;;;20.92;75.32;98982.66;4990646;28;20116;-80
2022/06/09 03:44:47;;;;;;;2.03;1.35;;;;;;;20.93;74.96;98979.03;4973439;28;20041;-81
2022/06/09 03:47:13;;;;;;;2.45;1.38;;;;;;;20.90;74.88;98973.88;4990966;28;20037;-83
2022/06/09 03:49:39;;;;;;;3.80;1.65;;;;;;;20.85;74.98;98953.72;4991243;28;20144;-81
2022/06/09 03:52:04;;;;;;;3.47;1.88;;;;;;;20.93;74.76;98973.69;4990890;28;20084;-84
2022/06/09 03:54:30;;;;;;;2.65;1.88;;;;;;;20.93;74.75;98965.63;4990912;28;20108;-83
2022/06/09 03:56:55;;;;;;;2.40;1.52;;;;;;;21.08;73.70;98976.25;4990660;28;20034;-83
2022/06/09 03:59:21;;;;;;;1.63;1.38;;;;;;;21.06;73.51;98968.31;4991209;28;20031;-83
2022/06/09 04:01:46;;;;;;;3.60;1.73;;;;;;;21.13;73.87;98982.13;4989802;28;20034;-83
2022/06/09 04:04:12;;;;;;;3.72;2.30;;;;;;;21.19;73.41;98989.75;4990814;28;20500;-83
2022/06/09 04:06:38;;;;;;;1.70;1.25;;;;;;;21.22;73.36;98975.28;4990527;28;20062;-83
2022/06/09 04:09:04;;;;;;;3.25;1.65;;;;;;;21.23;73.67;98971.63;4979826;28;20490;-83
2022/06/09 04:11:30;;;;;;;2.53;1.63;;;;;;;21.43;73.20;98983.63;4971688;28;20037;-83
2022/06/09 04:13:56;;;;;;;2.15;1.27;;;;;;;21.52;72.94;98991.06;4971338;28;20066;-84
2022/06/09 04:16:23;;;;;;;1.92;1.40;;;;;;;21.64;72.87;99006.28;4971191;28;20062;-84
2022/06/09 04:18:52;;;;;;;3.08;1.40;;;;;;;21.51;72.46;98986.66;4990373;28;20534;-83
2022/06/09 04:21:20;;;;;;;2.55;1.60;;;;;;;21.62;71.79;98969.78;4990450;28;20030;-83
2022/06/09 04:23:45;;;;;;;2.38;1.40;;;;;;;21.81;70.77;98982.72;4990599;28;20077;-83
2022/06/09 04:26:17;;;;;;;7.20;2.28;;;;;;;22.03;70.79;98994.56;4990600;28;20506;-83
2022/06/09 04:28:43;;;;;;;1.88;1.52;;;;;;;21.90;69.84;98955.19;4986342;28;20568;-82
2022/06/09 04:31:09;;;;;;;1.67;1.58;;;;;;;22.31;69.10;98970.09;4987342;28;20054;-82
2022/06/09 04:33:35;;;;;;;1.90;1.40;;;;;;;22.42;67.84;98989.94;4989617;28;20045;-82
2022/06/09 04:36:01;;;;;;;2.35;1.63;;;;;;;22.38;67.46;98980.38;4984588;28;20548;-82
2022/06/09 04:38:26;;;;;;;3.25;2.13;;;;;;;22.45;67.06;98978.97;4990185;28;20117;-83
2022/06/09 04:40:52;;;;;;;3.17;1.30;;;;;;;22.13;67.90;98942.75;4982524;28;20046;-82
2022/06/09 04:43:17;;;;;;;2.88;1.63;;;;;;;22.35;67.33;98966.22;4970694;28;20066;-83
2022/06/09 04:45:43;;;;;;;3.28;1.75;;;;;;;22.24;65.74;98967.97;4986744;28;20424;-84
2022/06/09 04:48:10;;;;;;;2.70;1.45;;;;;;;22.36;66.96;98985.88;4983509;28;20061;-84
2022/06/09 04:50:36;;;;;;;2.38;1.58;;;;;;;22.29;67.30;98958.59;4989470;28;20034;-83
2022/06/09 04:53:01;;;;;;;1.83;1.20;;;;;;;22.39;67.46;98957.94;4989389;28;20504;-83
2022/06/09 04:55:27;;;;;;;3.13;2.15;;;;;;;22.32;67.76;98974.50;4989673;28;20034;-85
2022/06/09 04:57:52;;;;;;;3.33;1.73;;;;;;;22.66;66.16;98995.25;4989131;28;20053;-83
2022/06/09 05:00:18;;;;;;;3.10;1.88;;;;;;;22.59;65.72;98962.63;4988996;28;20080;-83
2022/06/09 05:02:44;;;;;;;3.97;2.22;;;;;;;22.86;65.43;99013.44;4989269;28;20038;-82
2022/06/09 05:05:19;;;;;;;4.32;2.22;;;;;;;22.90;65.10;98976.41;4989842;28;20038;-82
2022/06/09 05:07:44;;;;;;;3.30;1.57;;;;;;;23.02;64.57;98999.66;4989835;28;20026;-82
2022/06/09 05:10:10;;;;;;;5.22;2.13;;;;;;;22.87;64.69;98966.72;4990056;28;20278;-82
2022/06/09 05:12:35;;;;;;;3.40;1.90;;;;;;;22.86;64.93;98956.09;4989141;28;20041;-82
2022/06/09 05:15:01;;;;;;;2.53;1.95;;;;;;;22.95;64.46;98986.81;4989774;28;20030;-81
2022/06/09 05:17:26;;;;;;;3.67;2.72;;;;;;;23.27;63.35;98989.69;4970291;28;20038;-82
2022/06/09 05:19:52;;;;;;;3.58;1.77;;;;;;;23.26;63.37;98979.91;4984957;28;20069;-82
2022/06/09 05:22:18;;;;;;;3.22;2.38;;;;;;;23.34;63.31;98999.00;4989049;28;20181;-82
2022/06/09 05:24:43;;;;;;;2.47;2.03;;;;;;;23.02;63.12;98972.75;4989241;28;20069;-82
2022/06/09 05:27:11;;;;;;;2.85;1.52;;;;;;;23.19;62.40;98967.94;4988732;28;20559;-82
2022/06/09 05:29:36;;;;;;;2.33;1.55;;;;;;;23.35;62.32;99002.53;4987226;28;20045;-82
2022/06/09 05:32:03;;;;;;;3.45;2.63;;;;;;;23.38;62.17;99005.84;4985843;28;20023;-81
2022/06/09 05:34:30;;;;;;;2.97;1.92;;;;;;;23.30;61.72;98997.53;4988820;28;20814;-81
2022/06/09 05:36:56;;;;;;;3.47;2.30;;;;;;;23.75;60.65;99005.59;4980539;28;20035;-83
2022/06/09 05:45:12;;;;;;;3.45;2.33;;;;;;;23.85;58.83;98986.03;4926287;29;20051;-82
2022/06/09 05:47:38;;;;;;;2.90;2.17;;;;;;;24.04;59.39;98994.31;4975743;28;20050;-82
2022/06/09 05:50:04;;;;;;;3.95;2.25;;;;;;;24.59;58.61;99001.50;4987464;28;20408;-82
2022/06/09 05:52:30;;;;;;;10.23;3.00;;;;;;;24.40;58.16;99000.34;4987092;28;20038;-82
2022/06/09 05:54:57;;;;;;;4.07;2.75;;;;;;;24.60;57.66;98997.84;4987119;28;20038;-82
2022/06/09 05:57:23;;;;;;;3.38;2.33;;;;;;;24.08;57.27;98976.94;4988411;28;20032;-82
2022/06/09 05:59:50;;;;;;;3.20;1.88;;;;;;;24.35;57.32;99001.72;4988223;28;20076;-82
2022/06/09 06:02:18;;;;;;;3.50;2.40;;;;;;;24.55;57.48;98970.41;4988398;28;20034;-82
2022/06/09 06:04:44;;;;;;;3.72;2.55;;;;;;;25.16;56.85;98988.56;4986941;28;20030;-83
2022/06/09 06:07:09;;;;;;;4.63;2.55;;;;;;;25.49;54.86;98990.19;4986948;28;20092;-82
2022/06/09 06:09:35;;;;;;;3.83;2.25;;;;;;;25.50;55.30;98970.31;4987523;28;20475;-83
2022/06/09 06:12:03;;;;;;;5.18;2.20;;;;;;;26.08;55.53;98990.41;4987437;28;20161;-84
2022/06/09 06:14:30;;;;;;;4.13;3.00;;;;;;;26.00;53.19;98977.59;4987651;28;20053;-83
2022/06/09 06:16:55;;;;;;;3.70;2.42;;;;;;;26.20;53.33;98989.28;4986241;28;20057;-83
2022/06/09 06:19:22;;;;;;;4.00;2.45;;;;;;;25.82;53.16;98976.53;4980225;28;20055;-82
2022/06/09 06:21:48;;;;;;;2.90;1.88;;;;;;;25.54;53.47;98970.91;4968699;28;20045;-82
2022/06/09 06:24:14;;;;;;;3.50;2.22;;;;;;;25.97;53.36;98968.91;4973608;28;20042;-83
2022/06/09 06:26:40;;;;;;;4.65;2.80;;;;;;;26.36;51.70;98948.19;4986246;28;20128;-83
2022/06/09 06:29:10;;;;;;;8.32;5.32;;;;;;;26.00;52.14;98974.06;4987910;28;20053;-83
2022/06/09 06:31:36;;;;;;;5.07;3.10;;;;;;;26.43;51.83;98979.06;4970490;28;20496;-83
2022/06/09 06:34:01;;;;;;;3.90;2.50;;;;;;;26.45;51.21;98995.16;4987954;28;20041;-83
2022/06/09 06:36:29;;;;;;;4.38;2.50;;;;;;;26.06;51.50;98979.75;4987929;28;20027;-82
2022/06/09 06:38:55;;;;;;;4.47;2.60;;;;;;;26.07;51.67;98988.69;4988279;28;20034;-83
2022/06/09 06:41:21;;;;;;;5.60;2.97;;;;;;;26.26;51.05;98966.28;4976345;28;20061;-83
2022/06/09 06:43:48;;;;;;;4.47;3.05;;;;;;;26.68;50.43;98987.66;4987948;28;20034;-82
2022/06/09 06:46:15;;;;;;;4.30;2.88;;;;;;;26.36;49.75;98939.22;4987687;28;20054;-82
2022/06/09 06:48:41;;;;;;;6.28;2.97;;;;;;;26.40;50.91;98990.16;4987656;28;20491;-82
2022/06/09 06:51:06;;;;;;;4.60;3.25;;;;;;;26.72;49.96;98982.78;4987548;28;20045;-82
2022/06/09 06:53:33;;;;;;;5.18;3.63;;;;;;;26.72;49.44;98936.81;4987520;28;20026;-82
2022/06/09 06:55:58;;;;;;;3.50;2.90;;;;;;;27.09;49.58;98960.38;4987582;28;20030;-82
2022/06/09 06:58:24;;;;;;;5.05;3.45;;;;;;;26.90;51.05;98954.00;4987822;28;20117;-82
2022/06/09 07:00:50;;;;;;;4.45;2.45;;;;;;;27.19;48.42;98946.78;4987189;28;20476;-84
2022/06/09 07:03:16;;;;;;;5.70;3.95;;;;;;;27.52;48.05;98956.25;4987536;28;20136;-83
2022/06/09 07:05:42;;;;;;;5.32;3.88;;;;;;;28.14;45.90;98972.75;4986111;28;20523;-82
2022/06/09 07:08:08;;;;;;;6.70;4.82;;;;;;;28.61;47.33;98966.31;4987971;28;20041;-82
2022/06/09 07:10:33;;;;;;;5.78;2.97;;;;;;;28.46;44.32;98933.41;4986143;28;20034;-83
2022/06/09 07:13:00;;;;;;;6.82;2.95;;;;;;;28.67;44.96;98960.25;4987606;28;20035;-83
2022/06/09 07:15:25;;;;;;;3.83;2.67;;;;;;;28.51;45.87;98935.66;4986227;28;20140;-83
2022/06/09 07:17:51;;;;;;;5.18;3.38;;;;;;;29.04;44.55;98958.28;4987271;28;20101;-82
2022/06/09 07:20:17;;;;;;;4.97;2.90;;;;;;;29.25;44.73;98961.50;4987171;28;20026;-83
2022/06/09 07:22:43;;;;;;;7.55;3.65;;;;;;;29.49;42.97;98957.25;4987591;28;20026;-82
2022/06/09 07:25:13;;;;;;;6.50;4.63;;;;;;;29.35;42.42;98961.41;4985742;28;20133;-83
2022/06/09 07:27:39;;;;;;;3.15;2.38;;;;;;;29.30;41.12;98958.31;4986749;28;20259;-83
2022/06/09 07:30:06;;;;;;;4.95;3.10;;;;;;;29.64;41.65;98942.03;4987492;28;20220;-82
2022/06/09 07:32:32;;;;;;;5.07;3.92;;;;;;;29.27;40.67;98916.06;4987220;28;20042;-82
2022/06/09 07:34:57;;;;;;;3.28;2.53;;;;;;;29.18;41.77;98929.69;4987394;28;20038;-82
2022/06/09 07:37:23;;;;;;;4.20;2.25;;;;;;;29.49;41.04;98924.66;4987415;28;20027;-84
2022/06/09 07:39:48;;;;;;;3.97;3.22;;;;;;;29.42;42.28;98918.16;4986284;28;20420;-82
2022/06/09 07:42:14;;;;;;;2.40;2.03;;;;;;;29.64;40.97;98952.03;4987262;28;20501;-82
2022/06/09 07:44:39;;;;;;;4.15;2.55;;;;;;;30.16;40.96;98935.56;4987023;28;20708;-84
2022/06/09 07:47:05;;;;;;;3.85;1.90;;;;;;;30.17;40.99;98944.59;4969085;28;20716;-83
2022/06/09 07:49:32;;;;;;;2.38;1.50;;;;;;;30.41;40.54;98934.78;4986222;28;20034;-83
2022/06/09 07:51:58;;;;;;;3.28;2.00;;;;;;;30.66;40.31;98920.16;4987144;28;20030;-82
2022/06/09 07:54:23;;;;;;;4.93;3.88;;;;;;;30.78;39.88;98911.63;4986696;28;20077;-84
2022/06/09 07:56:49;;;;;;;5.35;4.85;;;;;;;30.08;39.98;98923.84;4986341;28;20839;-84
2022/06/09 07:59:14;;;;;;;2.70;1.73;;;;;;;30.18;39.30;98930.81;4987237;28;20420;-83
2022/06/09 08:01:40;;;;;;;3.08;1.92;;;;;;;29.64;40.36;98908.53;4986926;28;20034;-82
2022/06/09 08:04:06;;;;;;;2.88;1.67;;;;;;;29.19;43.48;98918.69;4987331;28;20030;-83
2022/06/09 08:06:31;;;;;;;3.67;2.58;;;;;;;29.43;43.85;98925.28;4988203;28;20068;-83
2022/06/09 08:09:00;;;;;;;3.97;3.17;;;;;;;29.65;42.69;98927.41;4989356;28;20035;-84
2022/06/09 08:11:32;;;;;;;4.90;3.70;;;;;;;30.09;42.27;98892.88;4990372;28;20038;-83
2022/06/09 08:13:58;;;;;;;2.50;1.85;;;;;;;29.16;42.79;98921.72;4990657;28;20504;-82
2022/06/09 08:16:24;;;;;;;3.88;2.83;;;;;;;28.93;43.65;98903.28;4990748;28;20033;-84
2022/06/09 08:18:50;;;;;;;5.35;2.83;;;;;;;29.03;42.85;98919.44;4990745;28;20031;-82
2022/06/09 08:21:16;;;;;;;4.03;2.90;;;;;;;29.22;42.35;98920.25;4990458;28;20030;-84
2022/06/09 08:23:41;;;;;;;2.78;1.83;;;;;;;28.90;44.09;98921.72;4990397;28;20492;-84
2022/06/09 08:26:07;;;;;;;2.28;1.58;;;;;;;28.65;43.81;98926.97;4990609;28;20030;-83
2022/06/09 08:28:32;;;;;;;2.30;1.70;;;;;;;28.76;44.53;98917.72;4990396;28;20464;-83
2022/06/09 08:30:58;;;;;;;4.13;2.97;;;;;;;28.91;43.96;98913.41;4990372;28;20034;-83
2022/06/09 08:33:26;;;;;;;4.43;2.80;;;;;;;29.22;42.02;98901.25;4990575;28;20038;-83
2022/06/09 08:35:53;;;;;;;3.05;2.28;;;;;;;29.25;43.64;98912.63;4990027;28;20555;-83
2022/06/09 08:38:19;;;;;;;5.72;2.20;;;;;;;29.14;42.09;98912.88;4990394;28;20027;-83
2022/06/09 08:40:54;;;;;;;2.95;1.98;;;;;;;29.01;42.98;98910.63;4994891;28;20108;-83
2022/06/09 08:43:22;;;;;;;2.83;1.95;;;;;;;28.47;42.88;98899.00;5010055;28;20030;-83
2022/06/09 08:45:52;;;;;;;2.67;1.70;;;;;;;28.27;44.54;98882.91;5009847;28;20112;-83
2022/06/09 08:48:21;;;;;;;3.13;1.75;;;;;;;29.02;42.85;98868.88;4991350;28;20408;-83
2022/06/09 08:51:08;;;;;;;3.95;1.38;;;;;;;29.97;39.89;98879.63;5009386;28;20038;-86
2022/06/09 08:53:49;;;;;;;3.00;1.70;;;;;;;30.56;37.40;98875.94;5009183;28;20037;-83
2022/06/09 08:56:27;;;;;;;3.28;2.20;;;;;;;30.82;38.92;98870.28;5009632;28;20045;-85
2022/06/09 08:58:58;;;;;;;2.95;1.67;;;;;;;30.11;40.12;98867.25;5009162;28;20034;-83
2022/06/09 09:01:33;;;;;;;6.85;1.92;;;;;;;29.92;42.45;98867.53;5008923;28;20776;-82
2022/06/09 09:04:06;;;;;;;3.13;2.20;;;;;;;29.62;39.76;98857.09;4990868;28;20435;-82
2022/06/09 09:06:34;;;;;;;2.42;1.77;;;;;;;29.75;38.80;98875.66;5009029;28;20030;-82
2022/06/09 09:09:14;;;;;;;1.83;1.50;;;;;;;29.79;39.34;98857.97;5009646;28;20511;-82
2022/06/09 09:12:00;;;;;;;2.90;1.52;;;;;;;29.51;40.26;98862.00;4970246;28;20062;-82
2022/06/09 09:14:51;;;;;;;2.25;1.33;;;;;;;29.85;39.66;98888.28;4951512;28;20053;-82
2022/06/09 09:17:37;;;;;;;3.33;1.90;;;;;;;30.31;39.73;98873.19;4970141;28;20034;-81
2022/06/09 09:20:23;;;;;;;2.72;1.52;;;;;;;31.14;38.16;98871.25;5007182;28;20161;-82
2022/06/09 09:22:58;;;;;;;2.03;1.63;;;;;;;31.19;36.81;98849.78;4991500;28;20427;-83
2022/06/09 09:25:44;;;;;;;3.22;2.17;;;;;;;31.46;36.68;98885.75;5006823;28;20065;-81
2022/06/09 09:28:27;;;;;;;2.70;1.77;;;;;;;31.02;36.15;98873.50;4992989;28;20046;-84
2022/06/09 09:31:24;;;;;;;3.38;1.42;;;;;;;30.44;38.76;98877.31;4989143;28;20029;-85
2022/06/09 09:33:50;;;;;;;1.95;1.45;;;;;;;30.50;37.58;98876.63;4935450;28;20547;-84
2022/06/09 09:36:21;;;;;;;2.80;1.55;;;;;;;30.54;38.72;98848.06;4989255;28;20070;-84
2022/06/09 09:39:00;;;;;;;1.88;1.52;;;;;;;30.30;36.38;98855.16;4989625;28;20038;-84
2022/06/09 09:41:33;;;;;;;1.67;1.33;;;;;;;30.42;36.82;98849.44;5007792;28;20050;-83
2022/06/09 09:43:59;;;;;;;10.27;4.32;;;;;;;30.23;38.33;98858.75;5008742;28;20425;-84
2022/06/09 09:46:31;;;;;;;4.90;2.58;;;;;;;30.07;41.04;98837.84;4991834;28;20479;-84
2022/06/09 09:49:15;;;;;;;4.30;2.40;;;;;;;29.95;40.19;98840.03;5008010;28;20042;-84
2022/06/09 09:51:42;;;;;;;2.97;1.33;;;;;;;28.89;42.41;98838.63;5008359;28;20037;-83
2022/06/09 09:54:37;;;;;;;4.65;2.38;;;;;;;28.51;44.34;98844.28;5007945;28;20424;-83
2022/06/09 09:57:19;;;;;;;2.67;1.88;;;;;;;28.34;43.71;98823.47;5008567;28;20030;-83
2022/06/09 09:59:52;;;;;;;12.20;2.00;;;;;;;27.94;43.64;98813.97;4991928;28;20038;-80
2022/06/09 10:08:39;;;;;;;2.25;1.48;;;;;;;28.59;41.53;98813.66;5008320;28;20119;-81
2022/06/09 10:14:32;;;;;;;3.53;1.50;;;;;;;29.05;41.96;98806.13;5008005;28;20443;-80
2022/06/09 10:16:58;;;;;;;1.50;1.30;;;;;;;28.12;43.70;98779.59;5007922;28;20033;-81
2022/06/09 10:19:28;;;;;;;2.42;1.55;;;;;;;28.24;44.39;98812.75;5008479;28;20500;-80
2022/06/09 11:39:30;;;;;;;4.00;1.80;;;;;;;28.75;41.02;98723.41;2689718;28;22784;-82
2022/06/09 11:42:02;;;;;;;2.08;1.30;;;;;;;28.66;39.95;98714.38;4991124;28;20030;-81
2022/06/09 11:44:37;;;;;;;1.70;0.95;;;;;;;28.40;40.41;98679.97;4990352;28;20578;-81
2022/06/09 11:47:13;;;;;;;2.35;1.35;;;;;;;28.64;40.61;98685.69;4973363;28;20053;-81
2022/06/09 11:50:11;;;;;;;2.80;1.30;;;;;;;29.06;38.95;98703.84;4990361;28;20053;-81
2022/06/09 11:52:44;;;;;;;2.35;1.85;;;;;;;28.70;39.16;98682.31;4978180;28;20145;-79
2022/06/09 11:58:35;;;;;;;2.00;1.10;;;;;;;29.05;38.24;98710.25;4991070;28;20062;-80
2022/06/09 12:18:36;;;;;;;1.27;0.90;;;;;;;30.24;35.09;98710.88;4990690;28;20136;-81
2022/06/09 12:21:16;;;;;;;0.68;0.68;;;;;;;30.05;34.38;98718.38;4990272;28;20062;-80
2022/06/09 12:23:50;;;;;;;1.45;0.60;;;;;;;30.47;34.38;98720.00;4991905;28;20382;-81
2022/06/09 12:26:19;;;;;;;2.65;1.45;;;;;;;30.30;32.82;98716.47;4991927;28;20031;-81
2022/06/09 12:28:52;;;;;;;1.10;0.45;;;;;;;30.30;32.88;98721.06;4990417;28;20459;-82
2022/06/09 12:31:20;;;;;;;0.50;0.43;;;;;;;30.39;34.46;98719.19;4990830;28;20034;-81
2022/06/09 12:34:09;;;;;;;0.95;0.50;;;;;;;30.55;32.55;98727.31;4990151;28;20040;-81
2022/06/09 12:36:48;;;;;;;0.63;0.35;;;;;;;30.38;32.29;98723.75;4977089;28;20049;-81
2022/06/09 12:39:28;;;;;;;1.45;0.85;;;;;;;30.10;32.97;98715.16;4990383;28;20089;-81
2022/06/09 12:41:59;;;;;;;5.97;0.90;;;;;;;29.75;33.46;98715.31;4989778;28;20416;-81
2022/06/09 12:44:27;;;;;;;1.10;0.70;;;;;;;29.44;33.37;98725.97;4972542;28;20408;-81
2022/06/09 12:46:54;;;;;;;1.52;0.98;;;;;;;29.39;34.29;98731.06;4953363;28;20492;-81
2022/06/09 12:49:25;;;;;;;0.85;0.65;;;;;;;29.17;33.97;98695.38;4982389;28;20042;-81
2022/06/09 12:51:51;;;;;;;0.68;0.47;;;;;;;29.34;34.59;98717.16;4989773;28;20041;-81
2022/06/09 12:54:32;;;;;;;0.93;0.60;;;;;;;29.08;33.97;98729.78;4989647;28;20042;-82
2022/06/09 12:57:05;;;;;;;1.08;0.40;;;;;;;28.97;35.53;98718.41;4982100;28;20031;-82
2022/06/09 12:59:37;;;;;;;0.73;0.55;;;;;;;28.42;35.32;98697.94;4970774;28;20023;-82
2022/06/09 13:02:28;;;;;;;0.30;0.30;;;;;;;28.93;36.08;98724.16;4977153;28;20041;-81
2022/06/09 13:04:58;;;;;;;1.40;0.85;;;;;;;28.99;36.79;98729.94;4989788;28;20038;-81
2022/06/09 13:07:32;;;;;;;0.98;0.60;;;;;;;28.63;36.85;98709.25;4989082;28;20501;-81
2022/06/09 13:10:24;;;;;;;1.20;0.80;;;;;;;28.49;36.51;98736.97;4971871;28;20077;-82
2022/06/09 13:12:56;;;;;;;0.50;0.50;;;;;;;28.40;36.58;98717.94;4972159;28;20489;-81
2022/06/09 13:15:46;;;;;;;0.82;0.60;;;;;;;28.16;37.85;98731.34;4989041;28;20038;-81
2022/06/09 13:18:11;;;;;;;1.20;0.40;;;;;;;27.89;37.73;98727.72;4989568;28;20184;-81
2022/06/09 13:20:39;;;;;;;0.47;0.30;;;;;;;28.00;37.56;98707.69;4988206;28;20034;-81
2022/06/09 13:23:06;;;;;;;0.50;0.50;;;;;;;28.11;37.96;98702.00;4989286;28;20065;-82
2022/06/09 13:25:32;;;;;;;1.02;0.63;;;;;;;28.54;38.05;98727.31;4989372;28;20057;-81
2022/06/09 13:27:58;;;;;;;0.40;0.40;;;;;;;28.43;39.23;98705.06;4987021;28;20141;-84
2022/06/09 15:45:20;;;;;;;2.20;1.65;;;;;;;26.85;50.15;98715.53;2359850;28;23228;-82
2022/06/09 15:47:46;;;;;;;1.50;1.07;;;;;;;26.83;50.73;98705.84;4985214;28;20065;-82
2022/06/09 15:50:15;;;;;;;1.55;1.10;;;;;;;26.23;51.55;98667.41;4986900;28;20129;-81
2022/06/09 15:52:41;;;;;;;1.67;1.27;;;;;;;26.35;52.10;98681.56;4986977;28;20045;-81